Time;durP1;ratioP1;P1;durP2;ratioP2;P2;SDS_P1;SDS_P2;PMS_P1;PMS_P2;Temp;Humidity;BMP_temperature;BMP_pressure;BME280_temperature;BME280_humidity;BME280_pressure;Samples;Min_cycle;Max_cycle;Signal;HPM_P1;HPM_P2
2022/02/23 00:01:32;;;;;;;28.87;14.33;;;;;;;-0.04;75.53;97731.94;1742416;82;21011;-79
2022/02/23 00:04:03;;;;;;;28.80;13.78;;;;;;;0.02;75.49;97735.03;1728372;82;20975;-79
2022/02/23 00:06:29;;;;;;;30.52;14.10;;;;;;;0.03;75.87;97732.86;1722528;82;21022;-78
2022/02/23 00:08:56;;;;;;;28.25;12.90;;;;;;;0.06;75.80;97722.89;1741878;82;21006;-78
2022/02/23 00:11:23;;;;;;;29.45;13.48;;;;;;;0.09;75.58;97728.14;1741914;82;21058;-78
2022/02/23 00:13:49;;;;;;;27.77;12.58;;;;;;;0.08;75.40;97722.05;1730264;82;21034;-78
2022/02/23 00:16:16;;;;;;;28.35;13.28;;;;;;;0.08;75.43;97725.95;1712845;84;20936;-78
2022/02/23 00:18:43;;;;;;;30.48;12.28;;;;;;;0.06;75.42;97722.89;1712810;84;21536;-79
2022/02/23 00:21:09;;;;;;;29.45;13.20;;;;;;;0.04;76.18;97726.78;1712995;84;21045;-78
2022/02/23 00:23:36;;;;;;;26.25;12.60;;;;;;;0.05;75.57;97725.95;1744993;81;20991;-79
2022/02/23 00:26:02;;;;;;;27.58;11.95;;;;;;;0.08;75.78;97722.05;1738437;82;21006;-79
2022/02/23 00:28:29;;;;;;;23.52;11.10;;;;;;;0.07;75.25;97725.94;1742478;82;21054;-79
2022/02/23 00:30:57;;;;;;;22.82;11.10;;;;;;;0.03;75.52;97719.84;1725412;82;21002;-78
2022/02/23 00:33:24;;;;;;;27.85;12.10;;;;;;;0.04;75.06;97722.87;1712152;84;21038;-78
2022/02/23 00:35:51;;;;;;;26.15;11.00;;;;;;;0.03;75.02;97715.08;1712841;84;21010;-78
2022/02/23 00:38:18;;;;;;;25.70;11.85;;;;;;;0.03;75.11;97714.63;1719057;81;20996;-78
2022/02/23 00:40:44;;;;;;;26.60;11.63;;;;;;;0.02;74.82;97714.19;1737963;82;21429;-78
2022/02/23 00:43:11;;;;;;;23.60;11.83;;;;;;;0.00;74.93;97712.02;1729387;83;20968;-78
2022/02/23 00:45:37;;;;;;;25.82;11.15;;;;;;;0.00;74.76;97706.80;1730886;83;21031;-78
2022/02/23 00:48:04;;;;;;;22.70;11.25;;;;;;;-0.01;74.68;97708.94;1730446;83;21003;-78
2022/02/23 00:50:31;;;;;;;24.05;12.07;;;;;;;0.02;75.22;97705.48;1720652;83;21023;-78
2022/02/23 00:52:58;;;;;;;24.20;11.10;;;;;;;0.04;74.76;97705.94;1717780;83;21457;-78
2022/02/23 00:55:24;;;;;;;24.75;12.03;;;;;;;0.06;74.74;97706.84;1730826;83;21008;-79
2022/02/23 00:57:51;;;;;;;24.87;11.53;;;;;;;0.09;74.68;97715.11;1730979;83;21038;-78
2022/02/23 01:00:17;;;;;;;25.17;11.12;;;;;;;0.10;75.50;97707.31;1726546;83;21057;-78
2022/02/23 01:02:44;;;;;;;22.40;10.75;;;;;;;0.07;75.38;97707.70;1730846;83;21046;-78
2022/02/23 01:05:11;;;;;;;23.98;11.40;;;;;;;0.09;75.08;97704.23;1716338;83;21389;-78
2022/02/23 01:07:38;;;;;;;29.15;12.33;;;;;;;0.15;75.02;97705.14;1701687;84;21082;-79
2022/02/23 01:10:09;;;;;;;27.60;11.85;;;;;;;0.16;75.40;97702.56;1706095;83;21471;-77
2022/02/23 01:12:34;;;;;;;25.75;11.55;;;;;;;0.18;75.08;97708.67;1730784;83;21449;-78
2022/02/23 01:15:00;;;;;;;23.62;10.98;;;;;;;0.20;75.03;97705.63;1730628;83;21023;-78
2022/02/23 01:17:27;;;;;;;26.23;10.78;;;;;;;0.23;75.01;97703.48;1716348;83;21015;-78
2022/02/23 01:19:53;;;;;;;21.05;10.72;;;;;;;0.25;74.87;97708.29;1701778;84;21031;-78
2022/02/23 01:22:20;;;;;;;24.32;11.05;;;;;;;0.28;74.81;97700.92;1703388;83;21000;-78
2022/02/23 01:24:46;;;;;;;24.15;11.08;;;;;;;0.29;75.66;97706.57;1701770;84;21011;-78
2022/02/23 01:27:13;;;;;;;22.27;11.28;;;;;;;0.24;75.77;97707.83;1712260;83;21016;-78
2022/02/23 01:29:40;;;;;;;24.52;11.25;;;;;;;0.27;75.24;97709.16;1730725;83;21015;-79
2022/02/23 01:32:08;;;;;;;24.02;11.50;;;;;;;0.28;75.14;97706.13;1728491;83;20992;-79
2022/02/23 01:34:35;;;;;;;23.18;10.95;;;;;;;0.28;75.24;97708.74;1730771;83;21414;-79
2022/02/23 01:37:02;;;;;;;25.25;11.30;;;;;;;0.30;75.31;97710.91;1722355;83;20991;-79
2022/02/23 01:39:28;;;;;;;21.10;10.05;;;;;;;0.32;74.84;97712.67;1701860;84;21433;-79
2022/02/23 01:41:54;;;;;;;24.02;11.25;;;;;;;0.37;74.66;97722.70;1708232;84;21068;-80
2022/02/23 01:44:21;;;;;;;24.95;10.20;;;;;;;0.41;74.55;97716.20;1725020;82;21022;-79
2022/02/23 01:46:47;;;;;;;19.00;8.98;;;;;;;0.43;74.68;97715.77;1742756;82;21421;-79
2022/02/23 01:49:14;;;;;;;20.45;9.68;;;;;;;0.48;74.50;97724.08;1742709;82;21003;-79
2022/02/23 01:51:40;;;;;;;23.65;9.88;;;;;;;0.52;74.22;97726.27;1742650;82;21057;-79
2022/02/23 01:54:07;;;;;;;16.67;9.08;;;;;;;0.55;74.41;97730.63;1742223;82;21385;-79
2022/02/23 01:56:34;;;;;;;19.67;9.10;;;;;;;0.60;74.12;97739.35;1742405;82;21054;-79
2022/02/23 01:59:01;;;;;;;21.62;9.68;;;;;;;0.63;74.63;97744.59;1742695;82;21002;-79
2022/02/23 02:01:28;;;;;;;22.42;9.33;;;;;;;0.64;73.97;97744.61;1742597;82;20967;-80
2022/02/23 02:03:55;;;;;;;18.90;9.90;;;;;;;0.65;74.44;97744.16;1713343;82;21074;-79
2022/02/23 02:06:21;;;;;;;17.85;9.28;;;;;;;0.64;73.87;97747.22;1703302;84;21434;-80
2022/02/23 02:08:48;;;;;;;20.20;9.78;;;;;;;0.64;73.83;97752.86;1703334;84;21028;-79
2022/02/23 02:11:15;;;;;;;19.27;9.28;;;;;;;0.68;73.91;97748.10;1692799;85;21450;-80
2022/02/23 02:13:41;;;;;;;19.95;9.13;;;;;;;0.72;73.70;97747.69;1703542;83;21403;-80
2022/02/23 02:16:08;;;;;;;17.98;9.43;;;;;;;0.76;73.92;97750.75;1705926;84;21011;-80
2022/02/23 02:18:35;;;;;;;18.82;9.03;;;;;;;0.75;73.69;97753.78;1725180;83;21375;-79
2022/02/23 02:21:01;;;;;;;15.83;8.50;;;;;;;0.79;73.61;97759.47;1725816;82;21000;-79
2022/02/23 02:23:28;;;;;;;16.37;8.43;;;;;;;0.80;73.63;97760.34;1718857;81;20967;-78
2022/02/23 02:25:55;;;;;;;16.17;8.68;;;;;;;0.81;73.71;97763.39;1713295;84;21503;-79
2022/02/23 02:28:21;;;;;;;18.60;8.33;;;;;;;0.83;73.64;97766.02;1713293;84;21022;-79
2022/02/23 02:30:48;;;;;;;15.20;7.97;;;;;;;0.84;73.48;97765.14;1713396;84;21055;-79
2022/02/23 02:33:15;;;;;;;14.23;7.72;;;;;;;0.88;73.27;97763.00;1730240;82;20992;-79
2022/02/23 02:35:41;;;;;;;15.10;7.62;;;;;;;0.87;73.35;97756.04;1739856;82;20951;-79
2022/02/23 02:38:09;;;;;;;17.05;7.60;;;;;;;0.88;73.27;97750.80;1739628;82;21002;-79
2022/02/23 02:40:36;;;;;;;13.43;7.17;;;;;;;0.90;73.37;97750.40;1732439;83;21408;-79
2022/02/23 02:43:05;;;;;;;14.35;7.55;;;;;;;0.94;72.91;97753.89;1721468;82;20966;-79
2022/02/23 02:45:32;;;;;;;15.25;7.28;;;;;;;0.95;72.87;97749.10;1706014;83;21019;-79
2022/02/23 02:48:00;;;;;;;17.60;7.40;;;;;;;0.98;72.87;97752.16;1694554;84;20988;-79
2022/02/23 02:50:27;;;;;;;15.88;7.28;;;;;;;1.01;72.86;97757.41;1694545;84;21011;-79
2022/02/23 02:52:53;;;;;;;14.63;7.30;;;;;;;1.03;72.76;97754.36;1706190;83;20992;-79
2022/02/23 02:55:20;;;;;;;15.75;7.97;;;;;;;1.08;72.59;97755.70;1735497;83;21057;-78
2022/02/23 02:57:46;;;;;;;11.40;6.90;;;;;;;1.13;72.52;97762.66;1735513;83;21373;-78
2022/02/23 03:00:14;;;;;;;14.78;7.35;;;;;;;1.16;72.47;97763.14;1735033;83;20994;-77
2022/02/23 03:02:42;;;;;;;15.95;7.55;;;;;;;1.17;72.40;97756.59;1706315;84;20994;-78
2022/02/23 03:05:09;;;;;;;13.68;7.22;;;;;;;1.20;72.31;97764.02;1676528;86;21027;-78
2022/02/23 03:07:35;;;;;;;12.63;7.03;;;;;;;1.21;72.27;97764.03;1706066;84;21430;-78
2022/02/23 03:10:03;;;;;;;17.57;8.00;;;;;;;1.23;72.25;97762.71;1706908;83;21006;-78
2022/02/23 03:12:29;;;;;;;14.33;7.60;;;;;;;1.27;72.27;97770.58;1706132;84;21062;-78
2022/02/23 03:14:56;;;;;;;14.07;7.92;;;;;;;1.27;72.16;97762.75;1694579;84;21058;-78
2022/02/23 03:17:22;;;;;;;15.00;8.13;;;;;;;1.29;72.12;97764.91;1694570;84;21004;-78
2022/02/23 03:19:49;;;;;;;12.93;7.20;;;;;;;1.33;72.02;97753.19;1694593;85;21019;-78
2022/02/23 03:22:15;;;;;;;13.45;7.78;;;;;;;1.31;72.18;97751.45;1719675;83;21032;-78
2022/02/23 03:24:42;;;;;;;15.90;8.33;;;;;;;1.32;72.00;97747.08;1723494;83;20968;-78
2022/02/23 03:27:09;;;;;;;15.83;7.80;;;;;;;1.32;71.83;97745.78;1723396;83;21397;-79
2022/02/23 03:29:36;;;;;;;16.82;8.40;;;;;;;1.30;71.87;97741.00;1723363;83;21024;-78
2022/02/23 03:32:03;;;;;;;17.35;8.28;;;;;;;1.30;72.06;97741.00;1722500;83;21406;-78
2022/02/23 03:34:30;;;;;;;16.05;8.00;;;;;;;1.30;71.72;97739.23;1723445;83;21488;-78
2022/02/23 03:36:56;;;;;;;14.05;7.80;;;;;;;1.25;72.40;97733.58;1735429;83;20982;-78
2022/02/23 03:39:23;;;;;;;17.25;8.38;;;;;;;1.17;72.31;97729.19;1735436;83;21011;-78
2022/02/23 03:41:50;;;;;;;17.42;8.63;;;;;;;1.20;72.11;97727.47;1706560;83;21071;-78
2022/02/23 03:44:17;;;;;;;15.55;8.45;;;;;;;1.22;72.01;97730.95;1681237;85;21000;-79
2022/02/23 03:46:43;;;;;;;16.62;7.70;;;;;;;1.18;72.19;97729.66;1710009;84;20992;-79
2022/02/23 03:49:10;;;;;;;18.00;8.03;;;;;;;1.15;72.48;97720.91;1710236;84;21143;-79
2022/02/23 03:51:37;;;;;;;14.70;8.35;;;;;;;1.05;72.72;97710.89;1708861;84;20985;-79
2022/02/23 03:54:03;;;;;;;16.70;8.55;;;;;;;1.00;72.27;97715.22;1709812;84;20997;-79
2022/02/23 03:56:39;;;;;;;17.02;8.28;;;;;;;0.95;72.26;97719.09;1709657;84;21470;-79
2022/02/23 03:59:08;;;;;;;15.63;7.55;;;;;;;0.90;72.26;97719.09;1709923;84;20990;-79
2022/02/23 04:01:37;;;;;;;16.65;7.87;;;;;;;0.86;72.22;97712.11;1693501;84;21045;-79
2022/02/23 04:04:05;;;;;;;16.30;8.33;;;;;;;0.81;72.43;97713.82;1681736;85;21041;-79
2022/02/23 04:06:33;;;;;;;19.05;8.48;;;;;;;0.72;72.49;97713.36;1681524;85;21012;-79
2022/02/23 04:09:00;;;;;;;15.53;7.55;;;;;;;0.68;72.29;97723.33;1674879;85;21063;-79
2022/02/23 04:11:28;;;;;;;15.13;7.75;;;;;;;0.61;72.61;97728.94;1681168;85;21000;-79
2022/02/23 04:13:54;;;;;;;15.05;7.05;;;;;;;0.55;72.59;97730.63;1681253;85;21083;-79
2022/02/23 04:16:21;;;;;;;14.47;7.17;;;;;;;0.50;72.69;97724.09;1681833;85;21059;-79
2022/02/23 04:18:49;;;;;;;12.60;6.40;;;;;;;0.47;72.67;97722.34;1681075;85;21418;-79
2022/02/23 04:21:16;;;;;;;15.03;7.20;;;;;;;0.45;73.01;97733.17;1696714;84;21048;-79
2022/02/23 04:23:43;;;;;;;15.88;6.92;;;;;;;0.44;72.60;97740.98;1698620;84;21405;-79
2022/02/23 04:26:12;;;;;;;13.20;7.08;;;;;;;0.41;72.74;97738.37;1700360;84;21188;-79
2022/02/23 04:28:39;;;;;;;15.38;7.62;;;;;;;0.35;72.80;97734.86;1697093;84;21063;-79
2022/02/23 04:31:06;;;;;;;15.85;7.67;;;;;;;0.30;73.19;97737.87;1695474;84;21553;-79
2022/02/23 04:33:32;;;;;;;15.25;6.10;;;;;;;0.29;73.04;97742.61;1695377;84;21000;-79
2022/02/23 04:35:59;;;;;;;18.65;7.12;;;;;;;0.23;73.30;97752.58;1695335;85;20989;-79
2022/02/23 04:38:25;;;;;;;13.55;7.17;;;;;;;0.16;73.26;97752.52;1687994;84;21100;-78
2022/02/23 04:40:52;;;;;;;14.98;6.90;;;;;;;0.14;73.43;97757.72;1680967;85;21070;-78
2022/02/23 04:43:19;;;;;;;14.15;7.28;;;;;;;0.12;73.68;97764.22;1699571;83;21041;-78
2022/02/23 04:45:45;;;;;;;16.67;6.85;;;;;;;0.09;73.60;97768.53;1701392;84;21052;-78
2022/02/23 04:48:13;;;;;;;15.98;7.80;;;;;;;0.12;74.07;97772.45;1697198;84;21052;-78
2022/02/23 04:50:40;;;;;;;17.65;7.53;;;;;;;0.14;73.71;97766.84;1732881;82;21070;-78
2022/02/23 04:53:06;;;;;;;19.15;8.30;;;;;;;0.15;73.75;97761.17;1732779;83;21015;-79
2022/02/23 04:55:33;;;;;;;18.23;8.50;;;;;;;0.17;74.44;97763.38;1732890;83;20939;-79
2022/02/23 04:58:07;;;;;;;14.65;7.90;;;;;;;0.19;73.96;97771.66;1701561;84;21021;-79
2022/02/23 05:00:28;;;;;;;17.62;8.58;;;;;;;0.22;73.74;97780.81;1732779;83;20966;-79
2022/02/23 05:02:55;;;;;;;21.93;9.10;;;;;;;0.24;73.85;97783.41;1733056;83;21515;-79
2022/02/23 05:05:22;;;;;;;16.12;8.53;;;;;;;0.26;73.79;97776.49;1703380;84;20997;-78
2022/02/23 05:07:48;;;;;;;17.02;9.45;;;;;;;0.32;74.00;97786.97;1675473;86;21001;-79
2022/02/23 05:10:15;;;;;;;18.98;9.55;;;;;;;0.38;73.88;97788.30;1675624;85;21075;-79
2022/02/23 05:12:41;;;;;;;19.85;10.82;;;;;;;0.43;73.85;97788.78;1703748;84;21395;-79
2022/02/23 05:15:09;;;;;;;21.52;10.65;;;;;;;0.48;73.77;97789.27;1720534;83;21006;-78
2022/02/23 05:17:35;;;;;;;27.17;12.73;;;;;;;0.53;73.91;97790.59;1702205;84;20985;-78
2022/02/23 05:20:04;;;;;;;24.77;12.05;;;;;;;0.57;73.81;97801.48;1702204;84;21471;-79
2022/02/23 05:22:30;;;;;;;23.75;11.45;;;;;;;0.62;73.64;97805.00;1727713;83;21462;-78
2022/02/23 05:24:57;;;;;;;24.45;11.18;;;;;;;0.64;73.60;97810.23;1704981;83;20995;-78
2022/02/23 05:27:23;;;;;;;21.48;10.85;;;;;;;0.69;73.81;97808.53;1703626;84;21034;-78
2022/02/23 05:29:50;;;;;;;24.00;12.60;;;;;;;0.71;73.62;97811.16;1675543;86;21083;-78
2022/02/23 05:32:16;;;;;;;25.57;10.58;;;;;;;0.72;73.59;97814.20;1688760;84;21010;-79
2022/02/23 05:34:43;;;;;;;20.02;11.20;;;;;;;0.72;73.78;97816.81;1703576;84;21424;-79
2022/02/23 05:37:10;;;;;;;22.93;11.43;;;;;;;0.74;73.62;97825.09;1674120;86;21073;-79
2022/02/23 05:39:36;;;;;;;20.80;10.80;;;;;;;0.72;73.69;97824.22;1703829;84;21432;-79
2022/02/23 05:42:03;;;;;;;26.48;12.23;;;;;;;0.70;73.61;97819.84;1672763;84;21028;-79
2022/02/23 05:44:30;;;;;;;23.85;11.78;;;;;;;0.69;73.58;97828.09;1662855;85;21009;-79
2022/02/23 05:46:57;;;;;;;26.68;11.45;;;;;;;0.67;73.54;97825.03;1683250;85;21032;-79
2022/02/23 05:49:23;;;;;;;25.10;11.33;;;;;;;0.63;73.58;97822.39;1682261;85;21162;-79
2022/02/23 05:51:50;;;;;;;24.95;11.63;;;;;;;0.66;73.67;97821.54;1696141;84;21043;-79
2022/02/23 05:54:16;;;;;;;21.73;11.75;;;;;;;0.68;73.64;97819.83;1683321;85;21504;-79
2022/02/23 05:56:44;;;;;;;21.80;11.55;;;;;;;0.75;73.81;97829.44;1683285;85;20996;-77
2022/02/23 05:59:11;;;;;;;23.22;12.35;;;;;;;0.81;73.63;97825.12;1683202;85;21103;-78
2022/02/23 06:01:37;;;;;;;27.42;11.78;;;;;;;0.87;73.65;97832.56;1692737;84;21451;-78
2022/02/23 06:04:04;;;;;;;21.57;10.10;;;;;;;0.89;73.34;97828.24;1680176;85;21063;-78
2022/02/23 06:06:31;;;;;;;23.27;11.28;;;;;;;0.92;73.83;97828.70;1683058;85;21059;-78
2022/02/23 06:08:57;;;;;;;22.42;11.38;;;;;;;0.98;73.50;97826.11;1681551;85;21045;-80
2022/02/23 06:11:25;;;;;;;22.30;11.43;;;;;;;1.04;73.36;97829.20;1702287;84;21024;-79
2022/02/23 06:13:51;;;;;;;23.15;11.48;;;;;;;1.08;73.30;97834.86;1711775;84;21020;-79
2022/02/23 06:16:23;;;;;;;23.47;11.20;;;;;;;1.13;74.56;97840.12;1704502;84;21056;-79
2022/02/23 06:18:54;;;;;;;22.90;10.20;;;;;;;1.15;73.69;97843.18;1711684;84;21102;-79
2022/02/23 06:21:21;;;;;;;20.52;10.93;;;;;;;1.18;74.20;97849.73;1679461;83;21072;-79
2022/02/23 06:23:48;;;;;;;16.40;10.20;;;;;;;1.20;74.00;97860.61;1688366;85;21024;-79
2022/02/23 06:26:14;;;;;;;22.58;10.18;;;;;;;1.18;74.11;97858.87;1688366;85;22197;-79
2022/02/23 06:28:41;;;;;;;20.48;11.03;;;;;;;1.23;73.56;97861.91;1688444;85;21087;-79
2022/02/23 06:31:09;;;;;;;20.02;10.15;;;;;;;1.28;73.49;97858.47;1677609;84;21016;-77
2022/02/23 06:33:37;;;;;;;22.65;13.78;;;;;;;1.33;73.16;97861.13;1654292;87;21083;-77
2022/02/23 06:36:05;;;;;;;38.50;19.80;;;;;;;1.32;73.17;97869.80;1676394;86;21068;-76
2022/02/23 06:38:31;;;;;;;39.63;19.90;;;;;;;1.25;72.78;97866.73;1682955;85;21059;-78
2022/02/23 06:40:59;;;;;;;32.65;17.35;;;;;;;1.18;72.65;97871.04;1696921;84;20992;-76
2022/02/23 06:43:25;;;;;;;32.67;16.85;;;;;;;1.13;72.68;97864.92;1680524;85;21089;-76
2022/02/23 06:45:52;;;;;;;30.95;14.80;;;;;;;1.12;73.06;97873.17;1712491;84;21016;-79
2022/02/23 06:48:20;;;;;;;27.42;14.45;;;;;;;1.10;72.81;97873.60;1721729;82;21405;-79
2022/02/23 06:50:46;;;;;;;31.37;15.03;;;;;;;1.12;72.98;97874.47;1739042;82;21417;-78
2022/02/23 06:53:15;;;;;;;29.52;14.30;;;;;;;1.17;72.93;97877.13;1738877;82;20984;-79
2022/02/23 06:55:44;;;;;;;27.30;14.60;;;;;;;1.18;72.82;97882.37;1738989;82;21012;-80
2022/02/23 06:58:11;;;;;;;29.82;14.38;;;;;;;1.22;72.83;97883.25;1738278;82;21713;-79
2022/02/23 07:00:40;;;;;;;24.45;12.65;;;;;;;1.26;73.06;97883.72;1738976;82;21016;-79
2022/02/23 07:03:09;;;;;;;24.95;12.63;;;;;;;1.29;73.38;97885.47;1739071;82;21008;-80
2022/02/23 07:05:36;;;;;;;17.98;11.03;;;;;;;1.34;73.16;97886.78;1739150;82;21048;-79
2022/02/23 07:08:07;;;;;;;21.77;11.83;;;;;;;1.41;73.81;97892.50;1735168;82;21026;-79
2022/02/23 07:10:36;;;;;;;17.45;10.20;;;;;;;1.48;72.94;97890.77;1725238;83;21075;-79
2022/02/23 07:13:06;;;;;;;21.42;10.98;;;;;;;1.57;72.92;97897.34;1725030;83;21016;-81
2022/02/23 07:15:37;;;;;;;18.52;10.98;;;;;;;1.67;72.75;97893.05;1727663;82;21016;-76
2022/02/23 07:18:05;;;;;;;20.25;9.33;;;;;;;1.76;72.84;97899.63;1708734;82;21004;-75
2022/02/23 07:20:32;;;;;;;22.65;10.32;;;;;;;1.83;72.83;97895.30;1732910;83;21043;-76
2022/02/23 07:22:59;;;;;;;24.60;11.70;;;;;;;1.84;72.85;97898.35;1727506;82;21040;-76
2022/02/23 07:25:28;;;;;;;29.60;12.98;;;;;;;1.92;72.58;97905.80;1726663;83;21020;-76
2022/02/23 07:27:55;;;;;;;24.82;13.48;;;;;;;1.98;72.37;97902.31;1708880;84;21035;-75
2022/02/23 07:30:22;;;;;;;20.92;10.65;;;;;;;2.08;72.36;97910.63;1738968;82;21416;-76
2022/02/23 07:32:49;;;;;;;18.37;10.53;;;;;;;2.18;72.02;97904.11;1732023;83;20999;-75
2022/02/23 07:35:16;;;;;;;18.52;9.88;;;;;;;2.24;71.82;97903.70;1708307;84;21008;-76
2022/02/23 07:37:44;;;;;;;17.15;8.90;;;;;;;2.31;71.22;97908.94;1709176;83;21054;-75
2022/02/23 07:40:18;;;;;;;16.32;8.43;;;;;;;2.43;71.20;97906.36;1739223;82;21061;-76
2022/02/23 07:42:45;;;;;;;14.00;7.97;;;;;;;2.52;70.43;97910.72;1729957;81;21382;-77
2022/02/23 07:45:12;;;;;;;17.02;8.78;;;;;;;2.62;70.48;97911.16;1720489;83;21452;-75
2022/02/23 07:47:39;;;;;;;16.97;9.45;;;;;;;2.70;70.04;97903.78;1718336;83;21012;-76
2022/02/23 07:50:12;;;;;;;20.80;10.35;;;;;;;2.78;69.74;97917.72;1735197;83;21002;-75
2022/02/23 07:52:39;;;;;;;15.88;9.83;;;;;;;2.83;69.73;97914.66;1734791;83;21031;-75
2022/02/23 07:55:08;;;;;;;20.45;9.95;;;;;;;2.97;69.91;97912.48;1692555;84;21100;-75
2022/02/23 07:57:35;;;;;;;17.15;9.60;;;;;;;3.08;68.76;97920.34;1705743;84;21050;-77
2022/02/23 08:00:06;;;;;;;18.27;10.10;;;;;;;3.12;69.16;97920.78;1676240;86;21443;-75
2022/02/23 08:02:34;;;;;;;17.05;9.13;;;;;;;3.18;69.19;97922.08;1701511;84;20988;-75
2022/02/23 08:05:01;;;;;;;18.98;11.53;;;;;;;3.27;68.98;97931.66;1727044;81;21021;-75
2022/02/23 08:07:28;;;;;;;32.53;14.68;;;;;;;3.33;68.55;97933.41;1703882;84;21026;-75
2022/02/23 08:09:55;;;;;;;32.48;15.45;;;;;;;3.33;68.47;97932.98;1722438;83;21520;-75
2022/02/23 08:12:23;;;;;;;37.23;20.92;;;;;;;3.33;68.03;97934.72;1709417;83;21011;-75
2022/02/23 08:14:52;;;;;;;40.60;21.07;;;;;;;3.24;68.02;97933.84;1676290;86;21011;-76
2022/02/23 08:20:06;;;;;;;23.05;12.30;;;;;;;3.29;68.15;97940.41;1706000;84;21055;-75
2022/02/23 08:22:33;;;;;;;21.10;11.78;;;;;;;3.32;67.57;97935.14;1697664;84;21425;-75
2022/02/23 08:25:02;;;;;;;14.15;7.95;;;;;;;3.41;67.60;97932.52;1706126;84;21059;-75
2022/02/23 08:27:30;;;;;;;15.15;7.40;;;;;;;3.47;65.19;97932.95;1706019;84;21397;-75
2022/02/23 08:29:57;;;;;;;15.35;7.22;;;;;;;3.59;65.52;97929.44;1705715;84;21051;-75
2022/02/23 08:32:24;;;;;;;14.90;8.23;;;;;;;3.73;66.22;97932.46;1731142;83;20966;-75
2022/02/23 08:34:53;;;;;;;14.65;8.20;;;;;;;3.89;66.58;97917.53;1735268;83;21040;-75
2022/02/23 08:37:22;;;;;;;18.98;10.25;;;;;;;4.04;64.53;97925.36;1735125;83;20974;-75
2022/02/23 08:39:51;;;;;;;21.75;11.00;;;;;;;4.18;65.42;97921.34;1735405;83;20978;-75
2022/02/23 08:42:18;;;;;;;18.45;9.78;;;;;;;4.31;66.05;97920.84;1724085;83;21014;-75
2022/02/23 08:44:45;;;;;;;15.58;9.15;;;;;;;4.46;66.05;97908.08;1737402;82;21060;-74
2022/02/23 08:47:13;;;;;;;15.23;9.30;;;;;;;4.62;64.70;97909.28;1739644;82;21023;-75
2022/02/23 08:49:41;;;;;;;19.62;9.95;;;;;;;4.75;65.69;97910.06;1725299;82;21683;-75
2022/02/23 08:52:09;;;;;;;17.35;9.93;;;;;;;4.88;64.49;97916.97;1739092;82;21083;-75
2022/02/23 08:54:38;;;;;;;19.67;10.13;;;;;;;4.95;63.97;97918.23;1739789;82;20998;-76
2022/02/23 08:57:06;;;;;;;22.25;10.20;;;;;;;5.00;64.57;97919.05;1739687;82;21011;-76
2022/02/23 08:59:34;;;;;;;15.68;8.58;;;;;;;5.04;64.28;97912.90;1732190;83;21006;-77
2022/02/23 09:02:02;;;;;;;14.30;7.80;;;;;;;5.11;61.38;97915.88;1737914;82;21495;-76
2022/02/23 09:04:30;;;;;;;14.60;7.37;;;;;;;5.13;61.53;97915.45;1732198;83;21007;-76
2022/02/23 09:06:57;;;;;;;13.58;6.62;;;;;;;5.23;59.81;97916.22;1739623;82;21427;-76
2022/02/23 09:09:24;;;;;;;11.22;6.22;;;;;;;5.38;59.36;97909.95;1732227;83;21054;-76
2022/02/23 09:11:50;;;;;;;12.65;7.05;;;;;;;5.63;58.75;97912.76;1732906;82;21044;-76
2022/02/23 09:14:18;;;;;;;10.90;6.53;;;;;;;5.92;58.66;97915.06;1736571;82;21015;-76
2022/02/23 09:16:45;;;;;;;11.43;6.05;;;;;;;6.03;57.56;97921.52;1742555;82;21002;-76
2022/02/23 09:19:11;;;;;;;13.32;7.25;;;;;;;6.08;57.07;97917.53;1742465;82;21006;-76
2022/02/23 09:21:38;;;;;;;12.15;6.25;;;;;;;6.06;57.09;97921.92;1734350;81;21462;-75
2022/02/23 09:24:07;;;;;;;8.33;5.00;;;;;;;5.98;55.16;97918.05;1731087;83;21007;-75
2022/02/23 09:26:34;;;;;;;9.03;4.90;;;;;;;5.99;56.32;97917.61;1728327;83;21076;-75
2022/02/23 09:29:02;;;;;;;17.57;9.05;;;;;;;6.05;56.73;97914.50;1728372;81;21017;-75
2022/02/23 09:31:29;;;;;;;11.05;5.08;;;;;;;6.18;58.31;97927.05;1726665;82;21055;-75
2022/02/23 09:33:55;;;;;;;12.33;5.75;;;;;;;6.18;54.30;97925.73;1729633;81;20996;-75
2022/02/23 09:36:24;;;;;;;8.20;5.28;;;;;;;6.19;55.45;97927.47;1729773;82;21624;-75
2022/02/23 09:38:55;;;;;;;11.28;6.25;;;;;;;6.22;54.23;97930.50;1728696;82;21050;-75
2022/02/23 09:41:24;;;;;;;9.80;5.00;;;;;;;6.16;53.45;97938.05;1727359;82;21129;-75
2022/02/23 09:43:54;;;;;;;9.98;4.75;;;;;;;6.22;54.08;97933.13;1722044;82;21066;-74
2022/02/23 09:46:23;;;;;;;8.63;4.70;;;;;;;6.29;54.79;97934.81;1699676;83;21068;-75
2022/02/23 09:48:53;;;;;;;10.88;5.25;;;;;;;6.33;54.30;97940.90;1705302;81;21418;-75
2022/02/23 09:51:20;;;;;;;8.18;4.58;;;;;;;6.46;55.84;97949.50;1716133;83;21064;-75
2022/02/23 09:53:48;;;;;;;11.55;5.62;;;;;;;6.59;55.08;97939.66;1716680;83;21449;-75
2022/02/23 09:56:20;;;;;;;7.62;4.37;;;;;;;6.66;54.01;97951.86;1696568;83;21036;-75
2022/02/23 09:58:48;;;;;;;8.20;4.28;;;;;;;6.74;50.72;97955.70;1687744;83;21441;-75
2022/02/23 10:01:15;;;;;;;8.08;4.05;;;;;;;6.78;52.18;97955.20;1682549;84;21084;-75
2022/02/23 10:03:45;;;;;;;11.50;5.40;;;;;;;6.82;52.08;97949.00;1731257;81;21067;-75
2022/02/23 10:06:34;;;;;;;7.75;3.40;;;;;;;6.87;51.05;97955.06;1682928;84;21016;-75
2022/02/23 10:09:07;;;;;;;6.40;3.45;;;;;;;6.92;50.42;97950.59;1716942;81;21011;-75
2022/02/23 10:11:35;;;;;;;8.68;3.60;;;;;;;6.97;50.66;97939.97;1681775;84;21008;-75
2022/02/23 10:14:03;;;;;;;6.30;3.20;;;;;;;7.08;51.60;97936.73;1731638;81;21011;-76
2022/02/23 10:16:44;;;;;;;7.12;3.27;;;;;;;7.14;50.83;97935.73;1710767;82;21004;-76
2022/02/23 10:19:22;;;;;;;5.40;3.08;;;;;;;7.23;49.09;97943.96;1714592;82;21003;-75
2022/02/23 10:21:59;;;;;;;6.53;2.55;;;;;;;7.33;50.57;97946.86;1720447;82;21090;-74
2022/02/23 10:24:39;;;;;;;8.18;2.25;;;;;;;7.36;47.96;97940.66;1718296;82;20988;-75
2022/02/23 10:27:09;;;;;;;4.50;2.00;;;;;;;7.38;46.81;97933.58;1694355;82;21575;-75
2022/02/23 10:29:55;;;;;;;3.37;1.80;;;;;;;7.37;42.75;97938.00;1708675;82;21004;-75
2022/02/23 10:32:25;;;;;;;3.22;1.50;;;;;;;7.38;42.04;97933.58;1720133;82;21027;-75
2022/02/23 10:34:56;;;;;;;3.17;1.37;;;;;;;7.31;41.47;97926.69;1716648;82;20999;-75
2022/02/23 10:37:26;;;;;;;4.15;1.55;;;;;;;7.33;42.75;97923.56;1700546;83;20999;-75
2022/02/23 10:39:59;;;;;;;3.70;1.62;;;;;;;7.31;43.28;97924.91;1703202;83;21102;-76
2022/02/23 10:42:33;;;;;;;3.65;1.60;;;;;;;7.33;43.69;97923.56;1712844;84;21036;-78
2022/02/23 10:45:04;;;;;;;4.22;1.60;;;;;;;7.32;41.52;97924.47;1715686;83;21576;-75
2022/02/23 10:47:37;;;;;;;4.95;1.57;;;;;;;7.33;42.57;97930.16;1733616;82;21032;-76
2022/02/23 10:50:14;;;;;;;4.12;1.65;;;;;;;7.30;41.23;97919.69;1731961;82;20995;-75
2022/02/23 10:52:45;;;;;;;7.12;3.17;;;;;;;7.34;43.36;97922.23;1711761;83;21086;-76
2022/02/23 10:55:28;;;;;;;5.40;1.87;;;;;;;7.39;43.48;97914.22;1686797;83;21405;-76
2022/02/23 10:57:58;;;;;;;7.08;1.52;;;;;;;7.34;41.55;97907.73;1731722;82;21023;-76
2022/02/23 11:00:30;;;;;;;4.08;1.27;;;;;;;7.25;42.47;97911.41;1736066;81;21023;-76
2022/02/23 11:02:56;;;;;;;3.90;1.65;;;;;;;7.18;42.31;97901.00;1740089;81;20996;-76
2022/02/23 11:05:25;;;;;;;5.37;1.65;;;;;;;7.08;42.70;97901.59;1738058;81;21064;-76
2022/02/23 11:08:01;;;;;;;4.85;1.27;;;;;;;7.05;43.61;97901.66;1729265;82;21114;-76
2022/02/23 11:10:26;;;;;;;;;;;;;;;7.02;43.38;97893.33;1712522;82;21491;-76
2022/02/23 11:12:57;;;;;;;5.28;1.42;;;;;;;7.02;43.65;97895.11;1670521;83;20172;-77
2022/02/23 11:15:26;;;;;;;3.40;1.60;;;;;;;6.98;44.38;97892.52;1723270;82;21531;-77
2022/02/23 11:17:56;;;;;;;4.62;1.50;;;;;;;7.03;44.80;97896.41;1707942;83;21009;-77
2022/02/23 11:20:29;;;;;;;6.85;1.55;;;;;;;7.05;44.25;97882.75;1734465;81;21078;-77
2022/02/23 11:23:00;;;;;;;5.05;1.80;;;;;;;6.97;42.82;97891.22;1728375;81;21015;-76
2022/02/23 11:25:41;;;;;;;5.67;1.70;;;;;;;6.85;42.99;97885.27;1728089;82;21028;-76
2022/02/23 11:28:29;;;;;;;6.92;2.27;;;;;;;6.69;41.81;97886.42;1720627;82;21061;-76
2022/02/23 11:31:05;;;;;;;5.00;1.60;;;;;;;6.72;43.38;97886.35;1748114;81;21453;-77
2022/02/23 11:33:59;;;;;;;5.53;1.55;;;;;;;6.69;43.78;97895.64;1712687;81;21094;-77
2022/02/23 11:36:38;;;;;;;6.92;2.00;;;;;;;6.69;44.54;97887.73;1720484;82;21157;-76
2022/02/23 11:39:26;;;;;;;4.17;1.30;;;;;;;6.70;44.51;97884.20;1723037;82;21555;-77